Time;durP1;ratioP1;P1;durP2;ratioP2;P2;SDS_P1;SDS_P2;PMS_P1;PMS_P2;Temp;Humidity;BMP_temperature;BMP_pressure;BME280_temperature;BME280_humidity;BME280_pressure;Samples;Min_cycle;Max_cycle;Signal;HPM_P1;HPM_P2
2022/11/22 00:00:54;;;;;;;7.22;2.10;;;7.70;99.90;;;;;;4147830;28;20376;-67
2022/11/22 00:02:55;;;;;;;9.20;2.05;;;7.70;99.90;;;;;;4136318;28;20045;-67
2022/11/22 00:04:55;;;;;;;9.68;2.08;;;7.70;99.90;;;;;;4158267;28;20478;-66
2022/11/22 00:06:56;;;;;;;7.43;2.45;;;7.80;99.90;;;;;;4155853;28;20029;-67
2022/11/22 00:08:56;;;;;;;4.95;2.20;;;7.80;99.90;;;;;;4159346;28;20045;-67
2022/11/22 00:10:57;;;;;;;6.30;1.90;;;7.80;99.90;;;;;;4164970;28;20041;-67
2022/11/22 00:12:58;;;;;;;9.05;2.53;;;7.80;99.90;;;;;;4157395;28;20129;-67
2022/11/22 00:14:58;;;;;;;9.35;2.88;;;7.70;99.90;;;;;;4155525;28;20596;-68
2022/11/22 00:16:59;;;;;;;7.30;2.15;;;7.70;99.90;;;;;;4146929;28;20609;-67
2022/11/22 00:19:00;;;;;;;7.40;2.17;;;7.80;99.90;;;;;;4155473;28;20066;-67
2022/11/22 00:21:05;;;;;;;6.40;1.85;;;7.70;99.90;;;;;;4152455;28;20029;-67
2022/11/22 00:23:05;;;;;;;6.65;2.00;;;7.80;99.90;;;;;;4152399;28;20037;-67
2022/11/22 00:25:07;;;;;;;7.90;2.05;;;7.80;99.90;;;;;;4143216;28;20029;-67
2022/11/22 00:27:07;;;;;;;7.38;1.95;;;7.80;99.90;;;;;;4147179;28;20387;-67
2022/11/22 00:29:08;;;;;;;7.30;2.17;;;7.80;99.90;;;;;;4153847;28;20021;-67
2022/11/22 00:31:08;;;;;;;6.68;1.65;;;7.80;99.90;;;;;;4160025;28;20048;-67
2022/11/22 00:33:09;;;;;;;3.92;1.73;;;7.80;99.90;;;;;;4155320;28;20091;-65
2022/11/22 00:35:13;;;;;;;5.80;2.22;;;7.80;99.90;;;;;;4159935;28;20088;-67
2022/11/22 00:37:24;;;;;;;3.67;1.90;;;7.80;99.90;;;;;;4156949;28;20517;-67
2022/11/22 00:39:24;;;;;;;4.22;1.80;;;7.80;99.90;;;;;;4155209;28;20091;-67
2022/11/22 00:41:28;;;;;;;4.93;1.67;;;7.90;99.90;;;;;;4153816;28;20083;-67
2022/11/22 00:43:42;;;;;;;7.03;1.80;;;7.90;99.90;;;;;;4141222;28;20117;-67
2022/11/22 00:45:42;;;;;;;5.70;2.03;;;7.90;99.90;;;;;;4148223;28;20033;-67
2022/11/22 00:47:43;;;;;;;4.35;1.77;;;7.80;99.90;;;;;;4155106;28;20046;-66
2022/11/22 00:49:44;;;;;;;6.35;1.80;;;7.80;99.90;;;;;;4166670;28;20045;-67
2022/11/22 00:51:44;;;;;;;5.97;1.88;;;7.80;99.90;;;;;;4150174;28;20240;-67
2022/11/22 00:53:45;;;;;;;5.65;1.83;;;7.80;99.90;;;;;;4151729;28;20435;-67
2022/11/22 00:55:45;;;;;;;6.72;2.25;;;7.80;99.90;;;;;;4154717;28;20037;-67
2022/11/22 00:57:46;;;;;;;4.53;1.63;;;7.90;99.90;;;;;;4160146;28;20398;-67
2022/11/22 00:59:46;;;;;;;6.82;1.73;;;7.90;99.90;;;;;;4159906;28;20482;-67
2022/11/22 01:01:47;;;;;;;4.60;2.00;;;7.90;99.90;;;;;;4159528;28;20033;-67
2022/11/22 01:03:48;;;;;;;6.75;1.90;;;7.90;99.90;;;;;;4158938;28;20038;-67
2022/11/22 01:05:48;;;;;;;4.75;1.70;;;7.90;99.90;;;;;;4157684;28;20585;-67
2022/11/22 01:07:49;;;;;;;5.55;1.70;;;7.90;99.90;;;;;;4152902;28;20060;-67
2022/11/22 01:09:49;;;;;;;5.53;2.05;;;7.90;99.90;;;;;;4160148;28;20371;-67
2022/11/22 01:11:50;;;;;;;4.60;1.83;;;8.00;99.90;;;;;;4158869;28;20041;-67
2022/11/22 01:13:50;;;;;;;5.07;1.70;;;8.00;99.90;;;;;;4157572;28;20034;-67
2022/11/22 01:15:51;;;;;;;5.07;1.83;;;8.00;99.90;;;;;;4155536;28;20052;-67
2022/11/22 01:17:52;;;;;;;4.05;1.42;;;8.00;99.90;;;;;;4142681;28;20479;-67
2022/11/22 01:19:52;;;;;;;7.63;2.20;;;8.00;99.90;;;;;;4159363;28;20498;-67
2022/11/22 01:21:53;;;;;;;5.57;1.77;;;8.00;99.90;;;;;;4144617;28;20534;-67
2022/11/22 01:23:53;;;;;;;5.40;1.90;;;8.00;99.90;;;;;;4129268;28;20057;-67
2022/11/22 01:25:56;;;;;;;3.85;1.38;;;8.00;99.90;;;;;;4160188;28;20033;-68
2022/11/22 01:27:56;;;;;;;6.88;1.77;;;8.00;99.90;;;;;;4164744;28;20456;-67
2022/11/22 01:29:57;;;;;;;7.70;1.88;;;8.00;99.90;;;;;;4165038;28;20053;-67
2022/11/22 01:31:57;;;;;;;4.57;1.90;;;8.00;99.90;;;;;;4164572;28;20037;-67
2022/11/22 01:33:58;;;;;;;5.13;2.10;;;8.00;99.90;;;;;;4155723;28;20057;-67
2022/11/22 01:35:59;;;;;;;4.60;1.88;;;8.00;99.90;;;;;;4170738;28;20425;-67
2022/11/22 01:37:59;;;;;;;6.03;1.75;;;8.00;99.90;;;;;;4148020;28;20542;-67
2022/11/22 01:40:00;;;;;;;10.73;2.78;;;8.00;99.90;;;;;;4163607;28;20037;-67
2022/11/22 01:42:01;;;;;;;4.43;1.73;;;8.10;99.90;;;;;;4148201;28;20041;-67
2022/11/22 01:44:21;;;;;;;4.22;1.40;;;8.00;99.90;;;;;;4134246;28;20042;-67
2022/11/22 01:46:21;;;;;;;6.38;2.10;;;8.10;99.90;;;;;;4160812;28;20068;-68
2022/11/22 01:48:32;;;;;;;5.80;1.85;;;8.10;99.90;;;;;;4157726;28;20029;-67
2022/11/22 01:50:36;;;;;;;4.00;1.52;;;8.10;99.90;;;;;;4159320;28;20486;-67
2022/11/22 01:52:36;;;;;;;5.63;1.40;;;8.10;99.90;;;;;;4163736;28;20061;-67
2022/11/22 01:54:40;;;;;;;5.10;1.48;;;8.20;99.90;;;;;;4164219;28;20034;-67
2022/11/22 01:56:45;;;;;;;5.18;1.80;;;8.20;99.90;;;;;;4151275;28;20509;-67
2022/11/22 01:58:52;;;;;;;4.57;1.92;;;8.10;99.90;;;;;;4149971;28;20049;-67
2022/11/22 02:00:53;;;;;;;3.10;1.67;;;8.20;99.90;;;;;;4141455;28;20041;-67
2022/11/22 02:02:57;;;;;;;5.50;2.15;;;8.10;99.90;;;;;;4165022;28;20040;-67
2022/11/22 02:05:02;;;;;;;6.22;1.85;;;8.10;99.90;;;;;;4164488;28;20099;-67
2022/11/22 02:07:09;;;;;;;4.50;1.42;;;8.20;99.90;;;;;;4150695;28;20145;-67
2022/11/22 02:09:11;;;;;;;3.28;1.50;;;8.20;99.90;;;;;;4150783;28;20038;-67
2022/11/22 02:11:12;;;;;;;3.35;1.77;;;8.20;99.90;;;;;;4152014;28;20030;-67
2022/11/22 02:13:14;;;;;;;5.45;1.70;;;8.10;99.90;;;;;;4156948;28;20046;-67
2022/11/22 02:15:15;;;;;;;6.20;1.65;;;8.10;99.90;;;;;;4159519;28;20037;-67
2022/11/22 02:17:16;;;;;;;4.35;1.52;;;8.10;99.90;;;;;;4148014;28;20072;-67
2022/11/22 02:19:39;;;;;;;4.07;1.58;;;8.10;99.90;;;;;;4165669;28;22232;-68
2022/11/22 02:21:39;;;;;;;;;;;8.10;99.90;;;;;;4162256;28;20034;-67
2022/11/22 02:23:55;;;;;;;4.55;1.77;;;8.00;99.90;;;;;;4153443;28;19971;-67
2022/11/22 02:25:57;;;;;;;4.97;1.63;;;8.00;99.90;;;;;;4162546;28;20441;-67
2022/11/22 02:27:58;;;;;;;4.68;1.55;;;8.00;99.90;;;;;;4165131;28;20056;-67
2022/11/22 02:29:58;;;;;;;4.13;1.55;;;8.00;99.90;;;;;;4164438;28;20041;-67
2022/11/22 02:32:05;;;;;;;4.45;1.55;;;8.00;99.90;;;;;;4173348;28;20426;-67
2022/11/22 02:34:06;;;;;;;5.22;1.73;;;7.90;99.90;;;;;;4164089;28;20143;-66
2022/11/22 02:36:10;;;;;;;4.18;1.30;;;7.90;99.90;;;;;;4152900;28;20152;-66
2022/11/22 02:38:21;;;;;;;4.50;1.65;;;7.90;99.90;;;;;;4153618;28;20129;-67
2022/11/22 02:40:22;;;;;;;4.20;1.80;;;7.90;99.90;;;;;;4143585;28;20044;-69
2022/11/22 02:42:25;;;;;;;6.32;1.73;;;7.90;99.90;;;;;;4155494;28;20086;-66
2022/11/22 02:44:26;;;;;;;;;;;7.80;99.90;;;;;;4148144;28;20090;-67
2022/11/22 02:46:26;;;;;;;9.82;1.98;;;7.80;99.90;;;;;;4156777;28;19936;-67
2022/11/22 02:48:27;;;;;;;5.55;2.05;;;7.80;99.90;;;;;;4134361;28;20037;-67
2022/11/22 02:50:28;;;;;;;6.15;1.75;;;7.80;99.90;;;;;;4160701;28;20043;-67
2022/11/22 02:52:28;;;;;;;4.80;1.55;;;7.70;99.90;;;;;;4150382;28;20030;-67
2022/11/22 02:54:29;;;;;;;5.32;1.88;;;7.70;99.90;;;;;;4162256;28;20113;-67
2022/11/22 02:56:29;;;;;;;2.65;1.50;;;7.70;99.90;;;;;;4162933;28;20033;-67
2022/11/22 02:58:30;;;;;;;6.15;1.92;;;7.70;99.90;;;;;;4167527;28;20446;-67
2022/11/22 03:00:32;;;;;;;4.80;1.52;;;7.70;99.90;;;;;;4171402;28;20036;-67
2022/11/22 03:02:33;;;;;;;5.38;1.75;;;7.70;99.90;;;;;;4165811;28;20399;-67
2022/11/22 03:04:33;;;;;;;4.75;1.80;;;7.70;99.90;;;;;;4163827;28;20112;-67
2022/11/22 03:06:34;;;;;;;4.30;1.65;;;7.70;99.90;;;;;;4168554;28;20037;-66
2022/11/22 03:08:34;;;;;;;5.07;1.60;;;7.70;99.90;;;;;;4164378;28;20090;-67
2022/11/22 03:10:35;;;;;;;4.05;1.63;;;7.70;99.90;;;;;;4161781;28;20034;-68
2022/11/22 03:12:36;;;;;;;8.73;2.38;;;7.70;99.90;;;;;;4172009;28;20084;-68
2022/11/22 03:14:36;;;;;;;4.47;1.73;;;7.70;99.90;;;;;;4147325;28;20426;-67
2022/11/22 03:16:37;;;;;;;7.97;2.33;;;7.70;99.90;;;;;;4172145;28;20037;-67
2022/11/22 03:18:37;;;;;;;4.88;1.92;;;7.70;99.90;;;;;;4157541;28;20026;-66
2022/11/22 03:20:38;;;;;;;7.00;2.00;;;7.60;99.90;;;;;;4159445;28;20423;-69
2022/11/22 03:22:39;;;;;;;4.18;1.73;;;7.60;99.90;;;;;;4161896;28;20029;-67
2022/11/22 03:24:39;;;;;;;6.15;1.95;;;7.60;99.90;;;;;;4145627;28;20033;-67
2022/11/22 03:26:40;;;;;;;6.43;2.35;;;7.60;99.90;;;;;;4147228;28;20486;-67
2022/11/22 03:28:40;;;;;;;7.22;2.20;;;7.60;99.90;;;;;;4152696;28;20057;-66
2022/11/22 03:30:41;;;;;;;9.95;1.77;;;7.60;99.90;;;;;;4159680;28;20036;-67
2022/11/22 03:32:42;;;;;;;10.93;2.75;;;7.60;99.90;;;;;;4158234;28;20100;-67
2022/11/22 03:34:42;;;;;;;6.68;1.83;;;7.50;99.90;;;;;;4166487;28;20126;-73
2022/11/22 03:36:43;;;;;;;9.73;2.15;;;7.50;99.90;;;;;;4167916;28;20064;-73
2022/11/22 03:38:43;;;;;;;8.35;1.92;;;7.50;99.90;;;;;;4156470;28;20037;-75
2022/11/22 03:40:47;;;;;;;10.00;1.95;;;7.50;99.90;;;;;;4159887;28;20037;-73
2022/11/22 03:42:48;;;;;;;8.35;1.90;;;7.50;99.90;;;;;;4161885;28;20183;-72
2022/11/22 03:44:48;;;;;;;7.97;1.98;;;7.50;99.90;;;;;;4148048;28;20030;-73
2022/11/22 03:46:49;;;;;;;6.72;2.03;;;7.50;99.90;;;;;;4158809;28;20029;-73
2022/11/22 03:48:52;;;;;;;10.73;2.15;;;7.50;99.90;;;;;;4152894;28;20472;-72
2022/11/22 03:50:53;;;;;;;6.63;1.83;;;7.50;99.90;;;;;;4143687;28;20038;-66
2022/11/22 03:52:53;;;;;;;9.05;2.65;;;7.50;99.90;;;;;;4158292;28;20024;-66
2022/11/22 03:54:54;;;;;;;7.18;1.98;;;7.50;99.90;;;;;;4153390;28;20068;-65
2022/11/22 03:56:55;;;;;;;6.45;2.03;;;7.50;99.90;;;;;;4153746;28;20036;-67
2022/11/22 03:58:55;;;;;;;9.75;2.17;;;7.50;99.90;;;;;;4152565;28;20047;-66
2022/11/22 04:00:56;;;;;;;10.00;2.70;;;7.50;99.90;;;;;;4146084;28;20033;-65
2022/11/22 04:02:57;;;;;;;5.60;1.90;;;7.50;99.90;;;;;;4157188;28;20030;-67
2022/11/22 04:04:57;;;;;;;9.55;1.92;;;7.50;99.90;;;;;;4145861;28;20033;-67
2022/11/22 04:06:58;;;;;;;10.27;2.40;;;7.40;99.90;;;;;;4141687;28;20029;-66
2022/11/22 04:08:58;;;;;;;9.32;2.10;;;7.50;99.90;;;;;;4145570;28;20026;-65
2022/11/22 04:10:59;;;;;;;6.63;2.50;;;7.40;99.90;;;;;;4144705;28;20413;-66
2022/11/22 04:13:00;;;;;;;6.85;2.03;;;7.40;99.90;;;;;;4153080;28;20065;-65
2022/11/22 04:15:06;;;;;;;14.05;3.03;;;7.40;99.90;;;;;;4154281;28;20032;-66
2022/11/22 04:17:10;;;;;;;8.10;2.42;;;7.40;99.90;;;;;;4160480;28;20025;-65
2022/11/22 04:19:11;;;;;;;6.82;2.13;;;7.40;99.90;;;;;;4161751;28;20037;-65
2022/11/22 04:23:31;;;;;;;9.32;2.30;;;7.40;99.90;;;;;;4163708;28;20053;-67
2022/11/22 04:25:33;;;;;;;11.05;2.65;;;7.40;99.90;;;;;;4153154;28;20482;-66
2022/11/22 04:27:33;;;;;;;12.85;2.50;;;7.40;99.90;;;;;;4160813;28;20041;-65
2022/11/22 04:29:34;;;;;;;6.18;1.88;;;7.40;99.90;;;;;;4161387;28;20059;-66
2022/11/22 04:33:54;;;;;;;8.45;2.08;;;7.40;99.90;;;;;;4152615;28;20053;-70
2022/11/22 04:35:54;;;;;;;9.45;2.30;;;7.40;99.90;;;;;;4134218;28;20391;-66
2022/11/22 04:37:55;;;;;;;7.90;2.10;;;7.40;99.90;;;;;;4153883;28;20902;-67
2022/11/22 04:39:56;;;;;;;7.68;2.30;;;7.40;99.90;;;;;;4146446;28;20152;-65
2022/11/22 04:46:35;;;;;;;5.75;1.90;;;7.40;99.90;;;;;;4163291;28;20091;-66
2022/11/22 04:48:36;;;;;;;9.00;2.05;;;7.40;99.90;;;;;;4165118;28;20033;-65
2022/11/22 04:52:57;;;;;;;9.65;2.05;;;7.40;99.90;;;;;;4167142;28;20029;-66
2022/11/22 04:54:58;;;;;;;13.02;2.13;;;7.40;99.90;;;;;;4155489;28;20021;-65
2022/11/22 04:56:59;;;;;;;10.25;2.30;;;7.40;99.90;;;;;;4164399;28;20505;-65
2022/11/22 04:58:59;;;;;;;10.00;2.17;;;7.40;99.90;;;;;;4160467;28;20034;-66
2022/11/22 05:01:00;;;;;;;8.35;2.22;;;7.40;99.90;;;;;;4171845;28;20075;-68
2022/11/22 05:03:01;;;;;;;7.30;1.98;;;7.30;99.90;;;;;;4155715;28;20677;-65
2022/11/22 05:05:02;;;;;;;9.73;2.20;;;7.30;99.90;;;;;;4159681;28;20035;-65
2022/11/22 05:07:02;;;;;;;11.82;2.13;;;7.30;99.90;;;;;;4141479;28;20461;-65
2022/11/22 05:09:03;;;;;;;12.02;3.05;;;7.30;99.90;;;;;;4158223;28;20040;-65
2022/11/22 05:11:04;;;;;;;11.68;2.40;;;7.30;99.90;;;;;;4162064;28;20021;-65
2022/11/22 05:13:04;;;;;;;13.68;2.33;;;7.30;99.90;;;;;;4147711;28;20037;-66
2022/11/22 05:15:05;;;;;;;7.53;1.75;;;7.20;99.90;;;;;;4149382;28;20030;-65
2022/11/22 05:17:06;;;;;;;8.55;2.38;;;7.30;99.90;;;;;;4148441;28;20029;-67
2022/11/22 05:19:06;;;;;;;6.50;2.10;;;7.30;99.90;;;;;;4158787;28;20063;-66
2022/11/22 05:21:12;;;;;;;9.65;1.92;;;7.30;99.90;;;;;;4140987;28;20479;-65
2022/11/22 05:25:32;;;;;;;8.07;2.25;;;7.20;99.90;;;;;;4157460;28;20041;-66
2022/11/22 05:27:33;;;;;;;9.57;2.70;;;7.20;99.90;;;;;;4146517;28;20459;-65
2022/11/22 05:29:34;;;;;;;9.25;2.38;;;7.10;99.90;;;;;;4161121;28;20490;-65
2022/11/22 05:31:37;;;;;;;8.88;2.33;;;7.20;99.90;;;;;;4159669;28;20399;-65
2022/11/22 05:33:39;;;;;;;11.90;2.30;;;7.20;99.90;;;;;;4158959;28;20060;-65
2022/11/22 05:35:40;;;;;;;;;;;7.10;99.90;;;;;;4148852;28;20026;-65
2022/11/22 05:37:40;;;;;;;6.55;2.03;;;7.10;99.90;;;;;;4157080;28;19956;-65
2022/11/22 05:39:41;;;;;;;12.85;2.88;;;7.10;99.90;;;;;;4142563;28;20084;-65
2022/11/22 05:41:54;;;;;;;8.88;1.80;;;7.10;99.90;;;;;;4158947;28;20445;-65
2022/11/22 05:43:55;;;;;;;10.40;2.25;;;7.10;99.90;;;;;;4156401;28;20034;-65
2022/11/22 05:46:19;;;;;;;9.05;1.90;;;7.00;99.90;;;;;;4155907;28;20030;-66
2022/11/22 05:48:20;;;;;;;9.30;2.08;;;7.00;99.90;;;;;;4157286;28;20037;-66
2022/11/22 05:50:20;;;;;;;9.38;2.38;;;7.00;99.90;;;;;;4159794;28;20091;-66
2022/11/22 05:52:21;;;;;;;8.98;2.17;;;7.00;99.90;;;;;;4158339;28;20473;-66
2022/11/22 05:54:21;;;;;;;3.50;1.52;;;7.00;99.90;;;;;;4159249;28;20483;-66
2022/11/22 05:56:23;;;;;;;6.80;1.77;;;7.00;99.90;;;;;;4158415;28;20387;-65
2022/11/22 05:58:23;;;;;;;7.15;2.00;;;7.00;99.90;;;;;;4143325;28;20509;-65
2022/11/22 06:00:24;;;;;;;12.05;2.83;;;7.00;99.90;;;;;;4146126;28;20072;-66
2022/11/22 06:02:24;;;;;;;6.57;1.60;;;7.00;99.90;;;;;;4137756;28;20053;-65
2022/11/22 06:04:25;;;;;;;8.63;1.73;;;7.00;99.90;;;;;;4151622;28;20603;-66
2022/11/22 06:06:26;;;;;;;13.07;2.45;;;7.00;99.90;;;;;;4150384;28;20482;-65
2022/11/22 06:08:29;;;;;;;10.30;2.10;;;6.90;99.90;;;;;;4151770;28;20022;-67
2022/11/22 06:10:29;;;;;;;7.57;1.80;;;7.00;99.90;;;;;;4138016;28;20501;-66
2022/11/22 06:12:30;;;;;;;7.07;1.90;;;6.90;99.90;;;;;;4151634;28;20041;-65
2022/11/22 06:14:30;;;;;;;7.85;1.90;;;7.00;99.90;;;;;;4159988;28;20067;-65
2022/11/22 06:16:31;;;;;;;12.95;2.35;;;7.00;99.90;;;;;;4148817;28;20064;-66
2022/11/22 06:18:32;;;;;;;9.43;2.17;;;6.90;99.90;;;;;;4156575;28;20402;-64
2022/11/22 06:20:32;;;;;;;14.63;3.00;;;6.90;99.90;;;;;;4161741;28;20120;-64
2022/11/22 06:22:33;;;;;;;8.57;3.15;;;6.90;99.90;;;;;;4156943;28;20026;-65
2022/11/22 06:24:34;;;;;;;12.13;4.50;;;7.00;99.90;;;;;;4157840;28;20072;-65
2022/11/22 06:26:35;;;;;;;11.05;4.95;;;6.90;99.90;;;;;;4160020;28;20017;-67
2022/11/22 06:28:37;;;;;;;13.55;4.97;;;6.90;99.90;;;;;;4145076;28;20034;-65
2022/11/22 06:30:37;;;;;;;10.98;5.00;;;6.90;99.90;;;;;;4155358;28;20038;-65
2022/11/22 06:32:38;;;;;;;11.20;4.60;;;6.90;99.90;;;;;;4155349;28;20409;-66
2022/11/22 06:34:38;;;;;;;11.77;4.10;;;6.80;99.90;;;;;;4150230;28;20042;-65
2022/11/22 06:36:39;;;;;;;12.95;4.25;;;6.80;99.90;;;;;;4160108;28;20048;-64
2022/11/22 06:38:42;;;;;;;16.00;4.15;;;6.90;99.90;;;;;;4159586;28;20092;-65
2022/11/22 06:40:42;;;;;;;7.43;2.95;;;6.80;99.90;;;;;;4156361;28;20029;-65
2022/11/22 06:42:43;;;;;;;7.90;3.40;;;6.80;99.90;;;;;;4157046;28;20106;-65
2022/11/22 06:44:43;;;;;;;11.02;3.13;;;6.80;99.90;;;;;;4145534;28;20034;-65
2022/11/22 06:46:44;;;;;;;6.72;2.72;;;6.80;99.90;;;;;;4155977;28;20034;-65
2022/11/22 06:48:45;;;;;;;6.60;2.28;;;6.80;99.90;;;;;;4150557;28;20321;-65
2022/11/22 06:50:45;;;;;;;12.20;2.97;;;6.80;99.90;;;;;;4145493;28;20025;-65
2022/11/22 06:52:52;;;;;;;8.57;2.85;;;6.80;99.90;;;;;;4141543;28;20026;-64
2022/11/22 06:54:53;;;;;;;8.57;2.45;;;6.80;99.90;;;;;;4147647;28;20461;-63
2022/11/22 06:56:53;;;;;;;9.10;2.53;;;6.70;99.90;;;;;;4153173;28;20025;-64
2022/11/22 06:58:54;;;;;;;7.88;2.13;;;6.70;99.90;;;;;;4152338;28;20038;-64
2022/11/22 07:01:03;;;;;;;7.63;2.25;;;6.70;99.90;;;;;;4153859;28;20033;-64
2022/11/22 07:03:04;;;;;;;9.13;2.38;;;6.70;99.90;;;;;;4159838;28;20509;-65
2022/11/22 07:05:04;;;;;;;8.60;2.35;;;6.70;99.90;;;;;;4155152;28;20137;-65
2022/11/22 07:07:05;;;;;;;9.80;2.97;;;6.70;99.90;;;;;;4154659;28;20033;-65
2022/11/22 07:09:08;;;;;;;16.67;3.17;;;6.70;99.90;;;;;;4154967;28;20057;-64
2022/11/22 07:11:20;;;;;;;9.60;2.60;;;6.70;99.90;;;;;;4155283;28;20435;-65
2022/11/22 07:13:20;;;;;;;8.88;2.75;;;6.70;99.90;;;;;;4157411;28;20026;-66
2022/11/22 07:15:21;;;;;;;8.95;2.45;;;6.60;99.90;;;;;;4164472;28;20558;-65
2022/11/22 07:17:21;;;;;;;13.10;3.00;;;6.60;99.90;;;;;;4158434;28;20508;-64
2022/11/22 07:19:22;;;;;;;9.05;2.90;;;6.60;99.90;;;;;;4140730;28;20054;-64
2022/11/22 07:21:23;;;;;;;11.07;2.70;;;6.60;99.90;;;;;;4161417;28;20083;-66
2022/11/22 07:23:24;;;;;;;10.95;3.08;;;6.60;99.90;;;;;;4155919;28;20505;-64
2022/11/22 07:25:25;;;;;;;12.43;3.65;;;6.70;99.90;;;;;;4151003;28;20038;-64
2022/11/22 07:27:25;;;;;;;12.25;3.15;;;6.70;99.90;;;;;;4151853;28;20038;-66
2022/11/22 07:29:26;;;;;;;9.60;2.75;;;6.60;99.90;;;;;;4150416;28;20117;-64
2022/11/22 07:31:27;;;;;;;14.57;2.88;;;6.60;99.90;;;;;;4158619;28;20371;-64
2022/11/22 07:33:28;;;;;;;10.23;2.20;;;6.60;99.90;;;;;;4152179;28;20034;-64
2022/11/22 07:35:29;;;;;;;10.02;2.25;;;6.60;99.90;;;;;;4143967;28;20041;-65
2022/11/22 07:37:30;;;;;;;11.63;2.65;;;6.60;99.90;;;;;;4146571;28;20052;-64
2022/11/22 07:39:31;;;;;;;15.32;2.28;;;6.60;99.90;;;;;;4139106;28;20065;-65
2022/11/22 07:41:31;;;;;;;6.22;1.90;;;6.60;99.90;;;;;;4159157;28;20033;-65
2022/11/22 07:43:32;;;;;;;6.47;2.60;;;6.60;99.90;;;;;;4147929;28;20041;-64
2022/11/22 07:45:33;;;;;;;12.38;2.65;;;6.60;99.90;;;;;;4145378;28;20116;-64
2022/11/22 07:47:34;;;;;;;9.48;2.38;;;6.60;99.90;;;;;;4157523;28;20399;-65
2022/11/22 07:49:35;;;;;;;6.90;1.88;;;6.70;99.90;;;;;;4149897;28;20395;-65
2022/11/22 07:51:35;;;;;;;12.10;2.42;;;6.80;99.90;;;;;;4141140;28;20038;-68
2022/11/22 07:53:36;;;;;;;11.45;2.65;;;6.80;99.90;;;;;;4157720;28;20502;-65
2022/11/22 07:55:36;;;;;;;6.68;2.20;;;6.80;99.90;;;;;;4164093;28;20034;-65
2022/11/22 07:57:37;;;;;;;7.60;2.33;;;6.80;99.90;;;;;;4154262;28;20122;-64
2022/11/22 07:59:37;;;;;;;7.88;2.42;;;6.90;99.90;;;;;;4151338;28;20022;-64
2022/11/22 08:01:38;;;;;;;9.98;2.50;;;6.90;99.90;;;;;;4143984;28;20034;-64
2022/11/22 08:03:39;;;;;;;8.10;1.98;;;6.90;99.90;;;;;;4153094;28;20403;-64
2022/11/22 08:05:40;;;;;;;8.30;2.35;;;7.00;99.90;;;;;;4152930;28;20471;-65
2022/11/22 08:07:48;;;;;;;10.50;2.28;;;7.10;99.90;;;;;;4143662;28;20121;-66
2022/11/22 08:09:49;;;;;;;7.07;2.08;;;7.20;99.90;;;;;;4150598;28;20120;-65
2022/11/22 08:11:49;;;;;;;7.63;2.35;;;7.40;99.90;;;;;;4154568;28;20129;-66
2022/11/22 08:13:50;;;;;;;8.10;2.28;;;7.60;99.90;;;;;;4143019;28;20534;-64
2022/11/22 08:15:51;;;;;;;6.20;2.40;;;7.80;99.90;;;;;;4154713;28;20042;-65
2022/11/22 08:17:51;;;;;;;10.75;2.30;;;8.00;99.90;;;;;;4144818;28;20045;-69
2022/11/22 08:19:52;;;;;;;8.90;1.98;;;8.20;99.90;;;;;;4154328;28;20490;-66
2022/11/22 08:21:53;;;;;;;5.35;1.77;;;8.40;99.90;;;;;;4155901;28;20108;-65
2022/11/22 08:23:57;;;;;;;12.50;2.58;;;8.60;99.90;;;;;;4153516;28;20043;-65
2022/11/22 08:25:58;;;;;;;10.20;2.75;;;8.80;99.90;;;;;;4147410;28;20087;-65
2022/11/22 08:27:59;;;;;;;5.88;1.70;;;8.90;99.90;;;;;;4156436;28;20479;-66
2022/11/22 08:29:59;;;;;;;12.63;2.63;;;9.00;99.90;;;;;;4148611;28;20064;-65
2022/11/22 08:32:00;;;;;;;5.95;2.05;;;9.00;99.90;;;;;;4153640;28;20494;-65
2022/11/22 08:34:01;;;;;;;11.82;2.45;;;9.10;99.90;;;;;;4157265;28;20037;-67
2022/11/22 08:36:02;;;;;;;9.38;2.90;;;9.10;99.90;;;;;;4154226;28;20037;-65
2022/11/22 08:38:03;;;;;;;7.60;2.33;;;8.90;99.90;;;;;;4160669;28;20034;-65
2022/11/22 08:40:04;;;;;;;8.63;2.25;;;9.00;99.90;;;;;;4147758;28;20041;-66
2022/11/22 08:42:05;;;;;;;10.02;2.00;;;9.00;99.90;;;;;;4150006;28;20060;-65
2022/11/22 08:44:06;;;;;;;8.00;2.00;;;9.00;99.90;;;;;;4157451;28;20045;-65
2022/11/22 08:46:07;;;;;;;8.00;1.95;;;9.00;99.90;;;;;;4150627;28;20033;-64
2022/11/22 08:48:07;;;;;;;10.70;2.35;;;9.00;99.90;;;;;;4150149;28;20068;-65
2022/11/22 08:50:08;;;;;;;8.48;2.58;;;9.00;99.90;;;;;;4152598;28;20449;-66
2022/11/22 08:52:09;;;;;;;6.13;2.35;;;8.90;99.90;;;;;;4159232;28;20025;-65
2022/11/22 08:54:14;;;;;;;11.48;3.05;;;8.80;99.90;;;;;;4143985;28;20698;-64
2022/11/22 08:56:15;;;;;;;8.45;2.53;;;8.70;99.90;;;;;;4148608;28;20497;-65
2022/11/22 08:58:16;;;;;;;9.25;2.20;;;8.70;99.90;;;;;;4158204;28;21191;-66
2022/11/22 09:00:17;;;;;;;9.20;2.50;;;8.70;99.90;;;;;;4154473;28;20087;-65
2022/11/22 09:02:17;;;;;;;11.90;2.92;;;8.60;99.90;;;;;;4157896;28;20049;-65
2022/11/22 09:04:18;;;;;;;5.85;2.20;;;8.60;99.90;;;;;;4162292;28;20405;-64
2022/11/22 09:06:19;;;;;;;15.15;2.70;;;8.40;99.90;;;;;;4165892;28;20453;-65
2022/11/22 09:08:20;;;;;;;9.50;2.65;;;8.40;99.90;;;;;;4154862;28;20038;-65
2022/11/22 09:10:21;;;;;;;10.05;2.33;;;8.20;99.90;;;;;;4158901;28;20036;-65
2022/11/22 09:12:21;;;;;;;8.20;2.08;;;8.20;99.90;;;;;;4153871;28;20045;-64
2022/11/22 09:14:22;;;;;;;9.52;2.10;;;8.20;99.90;;;;;;4158928;28;20033;-66
2022/11/22 09:16:22;;;;;;;8.55;2.63;;;8.10;99.90;;;;;;4166103;28;20053;-69
2022/11/22 09:18:23;;;;;;;10.18;2.67;;;8.10;99.90;;;;;;4158613;28;20025;-65
2022/11/22 09:20:24;;;;;;;8.60;2.58;;;8.00;99.90;;;;;;4159141;28;20494;-64
2022/11/22 09:22:25;;;;;;;8.05;2.55;;;8.00;99.90;;;;;;4157486;28;20033;-65
2022/11/22 09:24:25;;;;;;;10.30;2.35;;;8.00;99.90;;;;;;4156884;28;20029;-65
2022/11/22 09:26:26;;;;;;;11.23;2.53;;;8.00;99.90;;;;;;4153481;28;20061;-65
2022/11/22 09:28:27;;;;;;;9.85;2.08;;;7.90;99.90;;;;;;4154985;28;20037;-65
2022/11/22 09:30:29;;;;;;;9.30;2.28;;;7.90;99.90;;;;;;4155276;28;20086;-65
2022/11/22 09:32:29;;;;;;;8.18;2.40;;;7.90;99.90;;;;;;4163451;28;20502;-65
2022/11/22 09:34:30;;;;;;;9.10;1.95;;;7.90;99.90;;;;;;4163459;28;20113;-65
2022/11/22 09:36:30;;;;;;;7.15;1.85;;;7.80;99.90;;;;;;4170212;28;20057;-64
2022/11/22 09:38:32;;;;;;;5.35;1.85;;;7.90;99.90;;;;;;4154358;28;20504;-68
2022/11/22 09:40:34;;;;;;;9.35;1.85;;;7.80;99.90;;;;;;4144747;28;20034;-64
2022/11/22 09:42:51;;;;;;;11.43;1.92;;;7.90;99.90;;;;;;4153832;28;20063;-65
2022/11/22 09:45:24;;;;;;;7.13;1.60;;;7.90;99.90;;;;;;4146733;28;20041;-65
2022/11/22 09:47:54;;;;;;;5.28;1.58;;;7.90;99.90;;;;;;4156487;28;20036;-64
2022/11/22 09:50:04;;;;;;;9.85;1.92;;;7.90;99.90;;;;;;4152260;28;20072;-64
2022/11/22 09:52:31;;;;;;;8.02;2.20;;;8.10;99.90;;;;;;4159178;28;20030;-65
2022/11/22 09:54:50;;;;;;;7.22;1.90;;;8.20;99.90;;;;;;4144597;28;20026;-66
2022/11/22 09:56:52;;;;;;;13.07;1.98;;;8.40;99.90;;;;;;4151352;28;20035;-64
2022/11/22 09:59:11;;;;;;;4.88;1.60;;;8.50;99.90;;;;;;4151581;28;20026;-66
2022/11/22 10:01:34;;;;;;;6.65;2.13;;;8.60;99.90;;;;;;4144749;28;20538;-65
2022/11/22 10:03:47;;;;;;;6.72;1.92;;;8.70;99.90;;;;;;4158857;28;20036;-64
2022/11/22 10:05:49;;;;;;;;;;;8.90;99.90;;;;;;4159164;28;20034;-64
2022/11/22 10:08:49;;;;;;;6.10;2.10;;;8.90;99.90;;;;;;4135484;28;19917;-65
2022/11/22 10:10:52;;;;;;;7.32;2.28;;;9.00;99.90;;;;;;4127570;28;20635;-67
2022/11/22 10:13:10;;;;;;;6.35;1.77;;;9.10;99.90;;;;;;4132382;28;20037;-65
2022/11/22 10:15:43;;;;;;;5.50;1.60;;;9.10;99.90;;;;;;4130088;28;20030;-64
2022/11/22 10:17:56;;;;;;;5.13;1.33;;;9.10;99.90;;;;;;4153344;28;20033;-65
2022/11/22 10:20:16;;;;;;;4.22;1.40;;;9.10;99.90;;;;;;4154919;28;20038;-65
2022/11/22 10:22:16;;;;;;;4.18;1.33;;;9.00;99.90;;;;;;4154261;28;20033;-66
2022/11/22 10:24:18;;;;;;;4.43;1.58;;;9.10;99.90;;;;;;4156114;28;20553;-64
2022/11/22 10:26:31;;;;;;;4.13;1.23;;;9.10;99.90;;;;;;4124506;28;20042;-68
2022/11/22 10:28:41;;;;;;;;;;;9.10;99.90;;;;;;4142409;28;20036;-65
2022/11/22 10:31:09;;;;;;;6.28;1.85;;;9.10;99.90;;;;;;4125535;28;20309;-69
2022/11/22 10:33:38;;;;;;;3.10;1.05;;;9.00;99.90;;;;;;4125416;28;20029;-68
2022/11/22 10:36:01;;;;;;;5.25;1.42;;;9.00;99.90;;;;;;4128487;28;20068;-68
2022/11/22 10:38:32;;;;;;;5.15;1.20;;;9.00;99.90;;;;;;4133106;28;20520;-69
2022/11/22 10:41:02;;;;;;;6.05;1.50;;;9.10;99.90;;;;;;4158388;28;20021;-66
2022/11/22 10:43:24;;;;;;;5.03;1.42;;;9.20;99.90;;;;;;4153331;28;20103;-67
2022/11/22 10:45:36;;;;;;;3.13;1.10;;;9.20;99.90;;;;;;4144168;28;20022;-65
2022/11/22 10:47:58;;;;;;;6.93;1.70;;;9.20;99.90;;;;;;4153099;28;20057;-64
2022/11/22 10:50:15;;;;;;;4.95;1.48;;;9.20;99.90;;;;;;4159484;28;20120;-65
2022/11/22 10:52:24;;;;;;;6.30;1.45;;;9.30;99.90;;;;;;4166904;28;20493;-65
2022/11/22 10:54:49;;;;;;;6.88;1.30;;;9.30;99.90;;;;;;4167672;28;20474;-68
2022/11/22 10:57:27;;;;;;;3.08;1.38;;;9.30;99.90;;;;;;4160842;28;20036;-65
2022/11/22 11:00:11;;;;;;;11.40;1.50;;;9.40;99.90;;;;;;4150490;28;20038;-66
2022/11/22 11:02:20;;;;;;;4.55;1.50;;;9.40;99.90;;;;;;4153634;28;20025;-66
2022/11/22 11:04:23;;;;;;;6.00;1.55;;;9.50;99.90;;;;;;4154072;28;20045;-67